Weather observations for the past three days for
Monticello White County Airport
| Date | Time (edt) | Wind (mph) | Vis. (mi.) | Weather | Sky Cond. | Temperature (ºF) | Relative Humidity | Wind Chill (°F) | Heat Index (°F) | Pressure | Precipitation (in) | ||||||
|---|---|---|---|---|---|---|---|---|---|---|---|---|---|---|---|---|---|
| Air | Dwpt | 6 hour | altimeter (in) | sea level (mb) | 1 hr | 3 hr | 6 hr | ||||||||||
| Max. | Min. | ||||||||||||||||
| 04 | 03:55 | S 8 | 10.00 | Fair | CLR | 51.6 | 39.6 | 64% | 29.75 | 0.0 | |||||||
| 04 | 03:35 | S 6 | 10.00 | Fair | CLR | 51.4 | 39.6 | 64% | 29.76 | 0.0 | |||||||
| 04 | 03:15 | S 7 | 10.00 | Fair | CLR | 51.4 | 39.6 | 64% | 29.76 | 0.0 | |||||||
| 04 | 02:55 | S 8 | 10.00 | Fair | CLR | 50.7 | 40.1 | 67% | 29.77 | 0.0 | |||||||
| 04 | 02:35 | S 9 | 10.00 | Fair | CLR | 51.8 | 40.1 | 65% | 29.78 | 0.0 | |||||||
| 04 | 02:15 | S 7 | 10.00 | Fair | CLR | 51.8 | 39.9 | 64% | 29.78 | 0.0 | |||||||
| 04 | 01:55 | S 7 | 10.00 | Fair | CLR | 50.7 | 40.1 | 58.6 | 50.5 | 67% | 29.79 | 0.0 | |||||
| 04 | 01:35 | S 6 | 10.00 | Fair | CLR | 52 | 40.1 | 64% | 29.79 | 0.0 | |||||||
| 04 | 01:15 | S 6 | 10.00 | Fair | CLR | 51.8 | 40.1 | 65% | 29.79 | 0.0 | |||||||
| 04 | 00:55 | S 5 | 10.00 | Fair | CLR | 52.3 | 40.1 | 63% | 29.79 | 0.0 | |||||||
| 04 | 00:35 | S 6 | 10.00 | Fair | CLR | 51.6 | 40.1 | 65% | 29.8 | 0.0 | |||||||
| 04 | 00:15 | S 6 | 10.00 | Fair | CLR | 52.9 | 40.5 | 63% | 29.8 | 0.0 | |||||||
| 03 | 23:55 | S 5 | 10.00 | Fair | CLR | 53.4 | 40.1 | 61% | 29.81 | 0.0 | |||||||
| 03 | 23:35 | S 5 | 10.00 | Fair | CLR | 53.1 | 40.5 | 62% | 29.81 | 0.0 | |||||||
| 03 | 23:15 | SE 5 | 10.00 | Fair | CLR | 54 | 39.9 | 59% | 29.81 | 0.0 | |||||||
| 03 | 22:55 | S 6 | 10.00 | Fair | CLR | 54.5 | 39.2 | 56% | 29.81 | 0.0 | |||||||
| 03 | 22:35 | S 5 | 10.00 | Fair | CLR | 54 | 39.2 | 58% | 29.81 | 0.0 | |||||||
| 03 | 22:15 | S 5 | 10.00 | Partly Cloudy | SCT065 | 55.4 | 39 | 54% | 29.81 | 0.0 | |||||||
| 03 | 21:55 | S 6 | 10.00 | Mostly Cloudy | BKN075 | 56.3 | 39 | 53% | 29.81 | 0.0 | |||||||
| 03 | 21:35 | S 6 | 10.00 | Mostly Cloudy | BKN075 | 56.3 | 39.4 | 53% | 29.81 | 0.0 | |||||||
| 03 | 21:15 | S 8 | 10.00 | Overcast | OVC075 | 57.4 | 39.4 | 51% | 29.81 | 0.0 | |||||||
| 03 | 20:55 | S 10 | 10.00 | Overcast | OVC075 | 58.1 | 39.4 | 50% | 29.81 | 0.0 | |||||||
| 03 | 20:35 | S 12 | 10.00 | Overcast | OVC075 | 58.3 | 39 | 49% | 29.81 | 0.0 | |||||||
| 03 | 20:15 | S 10 | 10.00 | Overcast | OVC075 | 58.3 | 38.7 | 48% | 29.82 | 0.0 | |||||||
| 03 | 19:55 | S 16 | 10.00 | Overcast | OVC075 | 58.5 | 38.5 | 61 | 48.6 | 48% | 29.83 | 0.0 | |||||
| 03 | 19:35 | SW 16 G 23 | 10.00 | Overcast | OVC075 | 59 | 38.1 | 46% | 29.83 | 0.0 | |||||||
| 03 | 19:15 | S 22 G 26 | 10.00 | Mostly Cloudy and Breezy | BKN075 BKN110 | 59.5 | 38.1 | 45% | 29.84 | 0.0 | |||||||
| 03 | 18:55 | S 18 G 28 | 10.00 | Mostly Cloudy | BKN075 | 59.4 | 37.9 | 45% | 29.84 | 0.0 | |||||||
| 03 | 18:35 | S 18 G 24 | 10.00 | Overcast | OVC075 | 59.7 | 37.8 | 44% | 29.84 | 0.0 | |||||||
| 03 | 18:15 | S 18 G 29 | 10.00 | Overcast | OVC085 | 59.7 | 38.1 | 45% | 29.85 | 0.0 | |||||||
| 03 | 17:55 | S 21 G 28 | 10.00 | Overcast and Breezy | OVC085 | 59.5 | 38.1 | 45% | 29.85 | 0.0 | |||||||
| 03 | 17:35 | S 20 G 28 | 10.00 | Overcast | SCT055 OVC095 | 59.9 | 37.9 | 44% | 29.86 | 0.0 | |||||||
| 03 | 17:15 | S 17 G 23 | 10.00 | Overcast | OVC095 | 58.8 | 37 | 44% | 29.87 | 0.0 | |||||||
| 03 | 16:55 | SW 14 G 24 | 10.00 | Mostly Cloudy | SCT060 BKN095 | 59.2 | 37.6 | 45% | 29.88 | 0.0 | |||||||
| 03 | 16:35 | SE 5 | 10.00 | Partly Cloudy | SCT060 SCT100 | 56.7 | 41.4 | 57% | 29.9 | 0.0 | |||||||
| 03 | 16:15 | SE 8 | 10.00 | Partly Cloudy | SCT060 SCT100 | 55.9 | 42.1 | 60% | 29.91 | 0.0 | |||||||
| 03 | 15:35 | S 12 G 17 | 10.00 | Light Drizzle | SCT045 OVC050 | 51.1 | 40.3 | 67% | 29.96 | 0.0 | |||||||
| 03 | 15:15 | Calm | 10.00 | Light Rain | SCT045 OVC050 | 50.5 | 39.9 | 67% | 29.96 | 0.0 | |||||||
| 03 | 14:55 | Calm | 10.00 | Rain | SCT029 BKN046 OVC050 | 49.1 | 41.7 | 76% | 29.98 | 0.0 | |||||||
| 03 | 14:35 | Calm | 10.00 | Light Rain | BKN045 OVC050 | 49.3 | 41.2 | 74% | 29.99 | 0.0 | |||||||
| 03 | 14:15 | SW 9 G 26 | 10.00 | Rain | BKN045 OVC060 | 50 | 39.2 | 67% | 47 | 30 | 0.0 | ||||||
| 03 | 13:55 | SW 24 G 30 | 10.00 | Mostly Cloudy and Breezy | SCT060 SCT070 BKN090 | 55.8 | 33.1 | 58.5 | 41 | 42% | 29.99 | 0.0 | |||||
| 03 | 13:35 | SW 20 G 25 | 10.00 | Partly Cloudy | SCT090 | 57 | 35.1 | 44% | 29.99 | 0.0 | |||||||
| 03 | 13:15 | SW 14 G 26 | 10.00 | Partly Cloudy | SCT090 | 57.6 | 34.7 | 42% | 29.99 | 0.0 | |||||||
| 03 | 12:55 | SW 18 G 25 | 10.00 | Partly Cloudy | SCT100 | 56.8 | 34.5 | 43% | 30 | 0.0 | |||||||
| 03 | 12:35 | SW 20 G 24 | 10.00 | Fair | CLR | 57 | 34.3 | 43% | 30 | 0.0 | |||||||
| 03 | 12:15 | SW 21 G 29 | 10.00 | Fair and Breezy | CLR | 57.7 | 35.4 | 43% | 30.01 | 0.0 | |||||||
| 03 | 11:55 | SW 17 G 24 | 10.00 | Fair | CLR | 56.8 | 35.2 | 44% | 30.01 | 0.0 | |||||||
| 03 | 11:35 | SW 16 G 28 | 10.00 | Fair | CLR | 56.3 | 35.1 | 45% | 30.03 | 0.0 | |||||||
| 03 | 11:15 | SW 18 G 30 | 10.00 | Fair | CLR | 54.3 | 33.3 | 45% | 30.03 | 0.0 | |||||||
| 03 | 10:55 | SW 20 G 25 | 10.00 | Fair | CLR | 54.7 | 33.3 | 44% | 30.03 | 0.0 | |||||||
| 03 | 10:35 | SW 16 | 10.00 | Fair | CLR | 53.8 | 34 | 47% | 30.04 | 0.0 | |||||||
| 03 | 10:15 | SW 12 G 18 | 10.00 | Fair | CLR | 52.3 | 33.4 | 49% | 30.04 | 0.0 | |||||||
| 03 | 09:55 | W 12 | 10.00 | Fair | CLR | 50.7 | 32.4 | 50% | 30.05 | 0.0 | |||||||
| 03 | 09:35 | SW 13 G 16 | 10.00 | Fair | CLR | 49.1 | 32 | 52% | 45 | 30.04 | 0.0 | ||||||
| 03 | 09:15 | SW 12 | 10.00 | Fair | CLR | 47.5 | 32 | 55% | 43 | 30.04 | 0.0 | ||||||
| 03 | 08:55 | S 12 | 10.00 | Fair | CLR | 46 | 31.5 | 57% | 41 | 30.04 | 0.0 | ||||||
| 03 | 08:35 | SW 9 | 10.00 | Fair | CLR | 44.4 | 30.6 | 58% | 40 | 30.04 | 0.0 | ||||||
| 03 | 08:15 | SW 8 | 10.00 | Fair | CLR | 42.6 | 30.2 | 62% | 38 | 30.04 | 0.0 | ||||||
| 03 | 07:55 | SW 7 | 10.00 | Fair | CLR | 40.8 | 29.8 | 41 | 38.3 | 65% | 37 | 30.04 | 0.0 | ||||
| 03 | 07:35 | SW 5 | 10.00 | Fair | CLR | 40.1 | 29.1 | 65% | 37 | 30.03 | 0.0 | ||||||
| 03 | 07:15 | SW 6 | 10.00 | Fair | CLR | 39.2 | 29.1 | 67% | 36 | 30.03 | 0.0 | ||||||
| 03 | 06:55 | SW 6 | 10.00 | Fair | CLR | 39.6 | 29.1 | 66% | 36 | 30.03 | 0.0 | ||||||
| 03 | 06:35 | SW 6 | 10.00 | Fair | CLR | 38.5 | 28.9 | 69% | 35 | 30.03 | 0.0 | ||||||
| 03 | 06:15 | SW 5 | 10.00 | Fair | CLR | 38.8 | 29.1 | 68% | 36 | 30.03 | 0.0 | ||||||
| 03 | 05:55 | S 6 | 10.00 | Fair | CLR | 38.5 | 29.3 | 70% | 35 | 30.03 | 0.0 | ||||||
| 03 | 05:35 | SW 5 | 10.00 | Fair | CLR | 38.8 | 29.1 | 68% | 36 | 30.03 | 0.0 | ||||||
| 03 | 05:15 | S 6 | 10.00 | Fair | CLR | 39.2 | 29.3 | 68% | 36 | 30.03 | 0.0 | ||||||
| 03 | 04:55 | S 6 | 10.00 | Fair | CLR | 39.2 | 29.1 | 67% | 36 | 30.03 | 0.0 | ||||||
| 03 | 04:35 | SW 7 | 10.00 | Fair | CLR | 39.6 | 29.1 | 66% | 35 | 30.03 | 0.0 | ||||||
| 03 | 04:15 | S 8 | 10.00 | Fair | CLR | 39.9 | 29.1 | 65% | 35 | 30.03 | 0.0 | ||||||
| 03 | 03:55 | S 7 | 10.00 | Fair | CLR | 40.1 | 28.9 | 64% | 36 | 30.04 | 0.0 | ||||||
| 03 | 03:35 | SW 7 | 10.00 | Fair | CLR | 40.1 | 28.9 | 64% | 36 | 30.04 | 0.0 | ||||||
| 03 | 03:15 | SW 7 | 10.00 | Fair | CLR | 40.1 | 29.1 | 65% | 36 | 30.04 | 0.0 | ||||||
| 03 | 02:55 | S 8 | 10.00 | Fair | CLR | 40.8 | 28.9 | 63% | 36 | 30.05 | 0.0 | ||||||
| 03 | 02:35 | SW 7 | 10.00 | Fair | CLR | 39.9 | 28.9 | 65% | 36 | 30.05 | 0.0 | ||||||
| 03 | 02:15 | S 5 | 10.00 | Fair | CLR | 39.9 | 28 | 63% | 37 | 30.06 | 0.0 | ||||||
| 03 | 01:55 | S 6 | 10.00 | Fair | CLR | 39.9 | 28 | 52.9 | 39.7 | 63% | 36 | 30.06 | 0.0 | ||||
| 03 | 01:35 | S 6 | 10.00 | Fair | CLR | 40.1 | 28.4 | 63% | 37 | 30.06 | 0.0 | ||||||
| 03 | 01:15 | S 6 | 10.00 | Fair | CLR | 40.8 | 27.7 | 60% | 37 | 30.06 | 0.0 | ||||||
| 03 | 00:55 | S 7 | 10.00 | Fair | CLR | 40.5 | 28.4 | 62% | 36 | 30.06 | 0.0 | ||||||
| 03 | 00:35 | S 7 | 10.00 | Fair | CLR | 40.6 | 27.9 | 60% | 37 | 30.06 | 0.0 | ||||||
| 03 | 00:15 | S 6 | 10.00 | Fair | CLR | 41 | 28.4 | 61% | 38 | 30.06 | 0.0 | ||||||
| 02 | 23:55 | S 6 | 10.00 | Fair | CLR | 40.8 | 28.4 | 61% | 37 | 30.07 | 0.0 | ||||||
| 02 | 23:35 | S 5 | 10.00 | Fair | CLR | 44.2 | 27 | 51% | 42 | 30.07 | 0.0 | ||||||
| 02 | 23:15 | Calm | 10.00 | Fair | CLR | 44.6 | 27.1 | 50% | 30.07 | 0.0 | |||||||
| 02 | 22:55 | Calm | 10.00 | Fair | CLR | 44.4 | 29.3 | 55% | 30.07 | 0.0 | |||||||
| 02 | 22:35 | Calm | 10.00 | Fair | CLR | 45.1 | 28.4 | 52% | 30.07 | 0.0 | |||||||
| 02 | 22:15 | Calm | 10.00 | Fair | CLR | 45.1 | 27.3 | 50% | 30.06 | 0.0 | |||||||
| 02 | 21:55 | Calm | 10.00 | Fair | CLR | 48 | 22.8 | 37% | 30.06 | 0.0 | |||||||
| 02 | 21:35 | Calm | 10.00 | Fair | CLR | 47.7 | 25.2 | 41% | 30.06 | 0.0 | |||||||
| 02 | 21:15 | Calm | 10.00 | Fair | CLR | 48.7 | 24.6 | 39% | 30.06 | 0.0 | |||||||
| 02 | 20:55 | Calm | 10.00 | Fair | CLR | 50.9 | 20.8 | 31% | 30.05 | 0.0 | |||||||
| 02 | 20:35 | W 3 | 10.00 | Partly Cloudy | SCT080 | 50.9 | 21.9 | 32% | 30.05 | 0.0 | |||||||
| 02 | 20:15 | W 9 | 10.00 | Mostly Cloudy | BKN080 | 52.2 | 21.9 | 31% | 30.06 | 0.0 | |||||||
| 02 | 19:55 | W 6 G 17 | 10.00 | Mostly Cloudy | SCT070 BKN080 | 52.2 | 21.2 | 54.7 | 48.6 | 30% | 30.06 | 0.0 | |||||
| 02 | 19:35 | NW 13 G 21 | 10.00 | Overcast | OVC070 | 53.6 | 21.6 | 29% | 30.06 | 0.0 | |||||||
| 02 | 19:15 | W 7 | 10.00 | Overcast | OVC070 | 53.6 | 22.3 | 29% | 30.06 | 0.0 | |||||||
| 02 | 18:55 | NW 7 | 10.00 | Mostly Cloudy | BKN075 BKN080 | 54.1 | 22.3 | 29% | 30.06 | 0.0 | |||||||
| 02 | 18:35 | Calm | 10.00 | Mostly Cloudy | BKN075 | 53.8 | 21.6 | 28% | 30.06 | 0.0 | |||||||
| 02 | 18:15 | NW 8 | 10.00 | Partly Cloudy | SCT075 | 52.9 | 20.3 | 28% | 30.06 | 0.0 | |||||||
| 02 | 17:55 | NW 5 G 18 | 10.00 | Partly Cloudy | SCT065 | 53.8 | 20.1 | 27% | 30.07 | 0.0 | |||||||
| 02 | 17:35 | NW 8 | 10.00 | Mostly Cloudy | BKN065 | 54 | 21.4 | 28% | 30.07 | 0.0 | |||||||
| 02 | 17:15 | N 9 | 10.00 | Mostly Cloudy | BKN065 | 53.6 | 19.6 | 26% | 30.07 | 0.0 | |||||||
| 02 | 16:55 | NW 10 G 22 | 10.00 | Overcast | OVC065 | 54.7 | 22.5 | 29% | 30.07 | 0.0 | |||||||
| 02 | 16:35 | NW 10 | 10.00 | Mostly Cloudy | BKN065 | 53.6 | 24.3 | 32% | 30.08 | 0.0 | |||||||
| 02 | 16:15 | NW 6 G 16 | 10.00 | Overcast | OVC065 | 51.6 | 21 | 30% | 30.09 | 0.0 | |||||||
| 02 | 15:55 | NW 8 | 10.00 | Mostly Cloudy | BKN065 | 51.8 | 21.9 | 31% | 30.09 | 0.0 | |||||||
| 02 | 15:35 | N 12 | 10.00 | Mostly Cloudy | BKN065 | 53.1 | 21.2 | 29% | 30.1 | 0.0 | |||||||
| 02 | 15:15 | NW 12 G 16 | 10.00 | Mostly Cloudy | BKN065 | 52 | 22.1 | 31% | 30.1 | 0.0 | |||||||
| 02 | 14:55 | N 12 G 17 | 10.00 | Mostly Cloudy | BKN065 | 49.6 | 21.2 | 33% | 46 | 30.1 | 0.0 | ||||||
| 02 | 14:35 | NW 12 G 21 | 10.00 | Mostly Cloudy | BKN065 | 52.7 | 23.4 | 32% | 30.11 | 0.0 | |||||||
| 02 | 13:55 | N 8 | 10.00 | Mostly Cloudy | BKN055 | 50 | 19.8 | 50.9 | 31.8 | 30% | 47 | 30.12 | 0.0 | ||||
| 02 | 13:35 | NW 13 G 17 | 10.00 | Mostly Cloudy | BKN055 | 48.9 | 21 | 33% | 44 | 30.12 | 0.0 | ||||||
| 02 | 13:15 | N 7 | 10.00 | Mostly Cloudy | BKN055 | 48.2 | 21.6 | 35% | 46 | 30.13 | 0.0 | ||||||
| 02 | 12:55 | N 7 G 20 | 10.00 | Partly Cloudy | SCT055 | 49.3 | 21.4 | 33% | 47 | 30.14 | 0.0 | ||||||
| 02 | 12:35 | NE 5 | 10.00 | Partly Cloudy | SCT055 | 48.2 | 21.7 | 35% | 47 | 30.13 | 0.0 | ||||||
| 02 | 12:15 | N 3 | 10.00 | Fair | CLR | 46.9 | 20.1 | 34% | 30.14 | 0.0 | |||||||
| 02 | 11:55 | N 10 | 10.00 | Fair | CLR | 47.3 | 23.7 | 40% | 43 | 30.14 | 0.0 | ||||||
| 02 | 11:35 | N 7 | 10.00 | Fair | CLR | 46.6 | 22.5 | 39% | 44 | 30.14 | 0.0 | ||||||
| 02 | 11:15 | NW 8 | 10.00 | Fair | CLR | 45.5 | 23 | 41% | 42 | 30.14 | 0.0 | ||||||
| 02 | 10:55 | Calm | 10.00 | Fair | CLR | 44.2 | 22.5 | 42% | 30.14 | 0.0 | |||||||
| 02 | 10:35 | NE 3 | 10.00 | Fair | CLR | 43.3 | 22.5 | 44% | 30.14 | 0.0 | |||||||
| 02 | 10:15 | NE 3 | 10.00 | Fair | CLR | 42.6 | 25.7 | 51% | 30.13 | 0.0 | |||||||
| 02 | 09:55 | NE 3 | 10.00 | Fair | CLR | 41.4 | 25 | 52% | 30.13 | 0.0 | |||||||
| 02 | 09:35 | N 3 | 10.00 | Fair | CLR | 41 | 26.4 | 56% | 30.13 | 0.0 | |||||||
| 02 | 09:15 | Calm | 10.00 | Fair | CLR | 40.1 | 27.7 | 61% | 30.12 | 0.0 | |||||||
| 02 | 08:55 | Calm | 10.00 | Fair | CLR | 37.6 | 29.5 | 73% | 30.12 | 0.0 | |||||||
| 02 | 08:35 | Calm | 10.00 | Fair | CLR | 35.4 | 30.4 | 82% | 30.11 | 0.0 | |||||||
| 02 | 08:15 | Calm | 10.00 | Fair | CLR | 32.7 | 29.5 | 88% | 30.11 | 0.0 | |||||||
| 02 | 07:55 | NW 6 | 10.00 | Fair | CLR | 31.5 | 28.9 | 40.5 | 30.9 | 90% | 26 | 30.11 | 0.0 | ||||
| 02 | 07:35 | W 6 | 10.00 | Fair | CLR | 31.6 | 27.5 | 85% | 27 | 30.11 | 0.0 | ||||||
| 02 | 07:15 | Calm | 10.00 | Fair | CLR | 32 | 27.9 | 85% | 30.11 | 0.0 | |||||||
| 02 | 06:55 | Calm | 10.00 | Fair | CLR | 32 | 28.2 | 86% | 30.11 | 0.0 | |||||||
| 02 | 06:35 | Calm | 10.00 | Fair | CLR | 32 | 28.2 | 86% | 30.1 | 0.0 | |||||||
| 02 | 06:15 | Calm | 10.00 | Fair | CLR | 32.4 | 28.2 | 85% | 30.1 | 0.0 | |||||||
| 02 | 05:55 | Calm | 10.00 | Fair | CLR | 33.8 | 28 | 79% | 30.1 | 0.0 | |||||||
| 02 | 05:35 | Calm | 10.00 | Fair | CLR | 35.6 | 27.3 | 72% | 30.1 | 0.0 | |||||||
| 02 | 05:15 | Calm | 10.00 | Fair | CLR | 35.2 | 27.3 | 73% | 30.09 | 0.0 | |||||||
| 02 | 04:55 | Calm | 10.00 | Fair | CLR | 35.8 | 27.7 | 72% | 30.09 | 0.0 | |||||||
| 02 | 04:35 | Calm | 10.00 | Partly Cloudy | SCT080 | 37.4 | 27.3 | 67% | 30.09 | 0.0 | |||||||
| 02 | 04:15 | NE 5 | 10.00 | Overcast | OVC080 | 38.3 | 28.2 | 67% | 35 | 30.08 | 0.0 | ||||||
| 02 | 03:55 | N 6 | 10.00 | Overcast | OVC080 | 39 | 27.1 | 62% | 35 | 30.08 | 0.0 | ||||||
| 02 | 03:35 | N 8 | 10.00 | Overcast | OVC080 | 39.6 | 26.6 | 60% | 35 | 30.09 | 0.0 | ||||||
| 02 | 03:15 | N 6 | 10.00 | Overcast | OVC080 | 40.1 | 26.2 | 58% | 37 | 30.09 | 0.0 | ||||||
| 02 | 02:55 | N 6 | 10.00 | Overcast | SCT055 OVC070 | 40.3 | 27.3 | 60% | 37 | 30.1 | 0.0 | ||||||
| 02 | 02:35 | N 6 | 10.00 | Overcast | SCT055 OVC070 | 40.3 | 28 | 62% | 37 | 30.1 | 0.0 | ||||||
| 02 | 02:15 | N 5 | 10.00 | Overcast | SCT055 OVC070 | 40.3 | 29.1 | 64% | 38 | 30.1 | 0.0 | ||||||
| 02 | 01:55 | N 5 | 10.00 | Overcast | BKN049 OVC070 | 40.3 | 28.8 | 49.1 | 39.4 | 64% | 38 | 30.11 | 0.0 | ||||
| 02 | 01:35 | N 5 | 10.00 | Mostly Cloudy | SCT049 SCT055 BKN070 | 40.1 | 29.3 | 65% | 37 | 30.11 | 0.0 | ||||||
| 02 | 01:15 | N 5 | 10.00 | Partly Cloudy | SCT050 SCT070 | 39.4 | 29.5 | 68% | 37 | 30.11 | 0.0 | ||||||
| 02 | 00:55 | N 3 | 10.00 | Mostly Cloudy | BKN050 | 40.3 | 29.7 | 66% | 30.11 | 0.0 | |||||||
| 02 | 00:35 | N 6 | 10.00 | Mostly Cloudy | BKN055 | 40.6 | 29.1 | 64% | 37 | 30.11 | 0.0 | ||||||
| 02 | 00:15 | N 6 | 10.00 | Partly Cloudy | SCT055 | 41 | 29.7 | 64% | 38 | 30.1 | 0.0 | ||||||
| 01 | 23:55 | N 8 | 10.00 | Fair | CLR | 41.2 | 29.5 | 63% | 37 | 30.1 | 0.0 | ||||||
| 01 | 23:35 | N 7 | 10.00 | Fair | CLR | 41.9 | 30.6 | 64% | 38 | 30.1 | 0.0 | ||||||
| 01 | 23:15 | N 7 | 10.00 | Partly Cloudy | SCT065 | 42.1 | 29.8 | 62% | 38 | 30.08 | 0.0 | ||||||
| 01 | 22:55 | N 8 | 10.00 | Fair | CLR | 42.8 | 29.8 | 60% | 39 | 30.08 | 0.0 | ||||||
| 01 | 22:35 | N 6 | 10.00 | Partly Cloudy | SCT090 | 43.7 | 29.8 | 58% | 41 | 30.07 | 0.0 | ||||||
| 01 | 22:15 | N 7 | 10.00 | Partly Cloudy | SCT060 | 44.1 | 30.2 | 58% | 41 | 30.06 | 0.0 | ||||||
| 01 | 21:55 | N 6 | 10.00 | Mostly Cloudy | SCT048 BKN060 | 45.5 | 29.3 | 53% | 43 | 30.05 | 0.0 | ||||||
| 01 | 21:35 | N 9 | 10.00 | Partly Cloudy | SCT048 SCT070 | 45.7 | 30 | 54% | 42 | 30.04 | 0.0 | ||||||
| 01 | 21:15 | N 6 | 10.00 | Partly Cloudy | SCT070 | 46 | 29.8 | 53% | 44 | 30.03 | 0.0 | ||||||
| 01 | 20:55 | Calm | 10.00 | Partly Cloudy | SCT080 | 47.3 | 29.5 | 50% | 30.03 | 0.0 | |||||||
| 01 | 20:35 | Calm | 10.00 | Overcast | SCT070 OVC080 | 48.2 | 29.7 | 49% | 30.03 | 0.0 | |||||||
| 01 | 20:15 | N 12 G 16 | 10.00 | Mostly Cloudy | BKN070 BKN080 | 48.4 | 30 | 49% | 44 | 30.03 | 0.0 | ||||||
| 01 | 19:55 | NW 12 G 18 | 10.00 | Overcast | BKN080 OVC090 | 49.1 | 29.7 | 53.6 | 45.9 | 47% | 45 | 30.03 | 0.0 | ||||
| 01 | 19:35 | N 3 G 18 | 10.00 | Mostly Cloudy | BKN090 | 49.3 | 30 | 48% | 30.03 | 0.0 | |||||||
| 01 | 19:15 | Calm | 10.00 | Partly Cloudy | SCT090 | 49.8 | 29.3 | 45% | 30.03 | 0.0 | |||||||
| 01 | 18:55 | NW 16 G 24 | 10.00 | Mostly Cloudy | SCT050 BKN065 BKN090 | 51.1 | 30.2 | 45% | 30.03 | 0.0 | |||||||
| 01 | 18:35 | Calm | 10.00 | Mostly Cloudy | BKN050 BKN090 | 52.2 | 29.8 | 42% | 30.03 | 0.0 | |||||||
| 01 | 18:15 | Calm | 10.00 | Mostly Cloudy | BKN090 | 52 | 29.7 | 42% | 30.03 | 0.0 | |||||||
| 01 | 17:55 | Calm | 10.00 | Overcast | OVC090 | 52.3 | 30.7 | 44% | 30.03 | 0.0 | |||||||
| 01 | 17:35 | Calm | 10.00 | Overcast | SCT080 OVC090 | 51.4 | 30.6 | 45% | 30.03 | 0.0 | |||||||
| 01 | 17:15 | NW 9 | 10.00 | Mostly Cloudy | SCT075 BKN090 | 50 | 31.1 | 48% | 47 | 30.03 | 0.0 | ||||||
| 01 | 16:55 | NW 10 | 10.00 | Mostly Cloudy | SCT050 BKN090 | 50.4 | 32.7 | 51% | 30.03 | 0.0 | |||||||
| 01 | 16:35 | Calm | 10.00 | Overcast | SCT043 BKN050 OVC090 | 47.3 | 32.5 | 57% | 30.04 | 0.0 | |||||||
| 01 | 16:15 | N 7 | 10.00 | Rain | SCT038 BKN046 OVC050 | 45.9 | 33.6 | 62% | 43 | 30.04 | 0.0 | ||||||
| 01 | 15:55 | NW 15 | 10.00 | Light Rain | SCT038 BKN048 OVC080 | 48.4 | 32.9 | 55% | 43 | 30.04 | 0.0 | ||||||
| 01 | 15:35 | NW 9 | 10.00 | Overcast | SCT037 BKN048 OVC065 | 49.8 | 33.4 | 53% | 47 | 30.02 | 0.0 | ||||||
| 01 | 15:15 | NW 9 | 10.00 | Overcast | SCT037 BKN065 OVC075 | 49.6 | 32.7 | 52% | 46 | 30.02 | 0.0 | ||||||
| 01 | 14:55 | NW 8 | 10.00 | Mostly Cloudy | SCT037 SCT048 BKN060 | 50.7 | 32.2 | 49% | 30.02 | 0.0 | |||||||
| 01 | 14:35 | NW 12 | 10.00 | Overcast | SCT037 BKN065 OVC070 | 49.3 | 33.1 | 54% | 45 | 30.02 | 0.0 | ||||||
| 01 | 14:15 | N 9 | 10.00 | Mostly Cloudy | SCT035 SCT048 BKN065 | 50.5 | 33.4 | 52% | 30.02 | 0.0 | |||||||
| 01 | 13:55 | NW 13 G 18 | 10.00 | Overcast | SCT032 SCT048 OVC065 | 49.8 | 35.2 | 50 | 40.1 | 57% | 45 | 30.02 | 0.0 | ||||
| 01 | 13:35 | NW 10 G 18 | 10.00 | Mostly Cloudy | SCT030 BKN038 BKN049 | 49.5 | 35.2 | 58% | 46 | 30.02 | 0.0 | ||||||
| 01 | 13:15 | NW 9 G 22 | 10.00 | Mostly Cloudy | SCT030 BKN038 BKN049 | 49.1 | 35.2 | 59% | 46 | 30.02 | 0.0 | ||||||
| 01 | 12:55 | N 6 G 29 | 10.00 | Overcast | SCT028 OVC034 | 47.5 | 34.7 | 61% | 45 | 30.02 | 0.0 | ||||||
| 01 | 12:35 | N 5 G 16 | 10.00 | Overcast | BKN028 OVC034 | 46.4 | 33.6 | 61% | 45 | 30.02 | 0.0 | ||||||
| 01 | 12:15 | N 10 G 17 | 10.00 | Mostly Cloudy | SCT022 BKN030 BKN036 | 46.6 | 34.7 | 63% | 42 | 30.01 | 0.0 | ||||||
| 01 | 11:55 | N 5 | 10.00 | Mostly Cloudy | BKN023 | 45.1 | 34.2 | 66% | 43 | 30.01 | 0.0 | ||||||
| 01 | 11:35 | Calm | 10.00 | Mostly Cloudy | BKN021 BKN027 | 45 | 34.3 | 66% | 30.01 | 0.0 | |||||||
| 01 | 11:15 | N 5 | 10.00 | Mostly Cloudy | SCT021 SCT027 BKN075 | 45.3 | 35.1 | 67% | 43 | 30.01 | 0.0 | ||||||
| 01 | 10:55 | N 7 | 10.00 | Mostly Cloudy | SCT019 BKN075 | 44.8 | 35.6 | 70% | 41 | 30 | 0.0 | ||||||
| 01 | 10:35 | NE 10 | 10.00 | Mostly Cloudy | SCT019 SCT060 BKN070 | 44.4 | 36 | 72% | 40 | 29.99 | 0.0 | ||||||
| 01 | 10:15 | NE 5 | 10.00 | Partly Cloudy | SCT014 SCT021 SCT060 | 42.4 | 36.7 | 80% | 40 | 29.99 | 0.0 | ||||||
| 01 | 09:55 | N 6 | 10.00 | Overcast | OVC012 | 42.3 | 37.8 | 84% | 39 | 29.99 | 0.0 | ||||||
| 01 | 09:35 | N 3 | 10.00 | Overcast | BKN012 OVC031 | 40.6 | 36.5 | 85% | 29.99 | 0.0 | |||||||
| 01 | 09:15 | N 6 | 10.00 | Overcast | SCT012 OVC029 | 41 | 36.7 | 85% | 38 | 29.98 | 0.0 | ||||||
| 01 | 08:55 | N 8 | 10.00 | Overcast | OVC024 | 40.5 | 36.7 | 86% | 36 | 29.97 | 0.0 | ||||||
| 01 | 08:35 | N 10 | 10.00 | Overcast | SCT011 OVC024 | 40.3 | 37 | 88% | 34 | 29.96 | 0.0 | ||||||
| 01 | 08:15 | N 10 | 10.00 | Overcast | SCT009 SCT014 OVC024 | 40.1 | 36.5 | 87% | 34 | 29.96 | 0.0 | ||||||
| 01 | 07:55 | N 10 | 10.00 | Overcast | BKN009 OVC024 | 40.1 | 37.2 | 48.4 | 40.1 | 89% | 34 | 29.94 | 0.0 | ||||
| 01 | 07:35 | N 10 | 10.00 | Overcast | BKN007 OVC016 | 40.5 | 38.3 | 92% | 35 | 29.94 | 0.0 | ||||||
| 01 | 07:15 | N 3 | 10.00 | Overcast | BKN007 OVC016 | 40.5 | 38.7 | 93% | 29.92 | 0.0 | |||||||
| 01 | 06:55 | N 12 | 10.00 | Overcast | OVC007 | 41.2 | 39.6 | 94% | 35 | 29.92 | 0.0 | ||||||
| 01 | 06:35 | NE 12 G 17 | 7.00 | Light Drizzle | OVC005 | 42.3 | 40.8 | 95% | 36 | 29.91 | 0.0 | ||||||
| 01 | 06:15 | N 12 G 17 | 10.00 | Overcast | OVC005 | 43.7 | 42.3 | 95% | 38 | 29.91 | 0.0 | ||||||
| 01 | 05:55 | N 10 | 10.00 | Overcast | BKN005 OVC011 | 45.1 | 43.9 | 95% | 40 | 29.91 | 0.0 | ||||||
| 01 | 05:35 | N 12 | 7.00 | Overcast | SCT007 BKN013 OVC042 | 46.4 | 44.8 | 94% | 42 | 29.9 | 0.0 | ||||||
| 01 | 05:15 | Calm | 10.00 | Overcast | BKN009 OVC026 | 47.3 | 45.7 | 94% | 29.9 | 0.0 | |||||||
| 01 | 04:35 | Calm | 10.00 | Overcast | OVC026 | 47.7 | 46.4 | 95% | 29.9 | 0.0 | |||||||
| 01 | 04:15 | Calm | 10.00 | Overcast | BKN028 BKN037 OVC050 | 47.7 | 45.9 | 94% | 29.9 | 0.0 | |||||||
| 01 | 03:55 | Calm | 10.00 | Overcast | SCT023 BKN028 OVC037 | 48 | 45.7 | 92% | 29.9 | 0.0 | |||||||
| Date | Time (edt) | Wind (mph) | Vis. (mi.) | Weather | Sky Cond. | Air | Dwpt | Max. | Min. | Relative Humidity | Wind Chill (°F) | Heat Index (°F) | altimeter (in) | sea level (mb) | 1 hr | 3 hr | 6 hr |
| 6 hour | |||||||||||||||||
| Temperature (ºF) | Pressure | Precipitation (in) | |||||||||||||||